Spalding, Nebraska
Current Conditions -  °F | °C
As of 2:15 PM on Sunday 23 Nov 2014 (Local Time) from KBVN Reporting Station
Clear Clear  
Wind Chill: 36°   Ceiling: Unl
Heat Index: 44°   Visibility: 10mi
Dew Point: 30°   Wind: 20mph
Humidity: 57%   Direction: 340°NNW
Pressure: 29.54"   Gusts: 32mph
Location:  41.69°N, 98.36°W
Report Text: KBVN 232015Z AUTO 34017G28KT 10SM CLR 07/M01 A2954 RMK AO2 T00661013
Loading
Personal Weather Stations






























Interactive Weather Map New forecast layout! Learn more

10-Day Weather Forecast

Advertisements
Track Severe Weather on mobile